KRDU

Raleigh-Durham International Airport

Morrisville, North Carolina, USA
METAR KRDU 151151Z 05016G23KT 6SM -RA BR BKN008 OVC016 04/03 A3014 RMK AO2 PK WND 04026/1057 SLP209 60028 70028 P0011 T00390028 10039 20022 57043
Observed Flight Rules
Nov-15 @ 11:51 UTC (an hour ago) Instrument Flight Rules
Wind Visibility Clouds Conditions
50° at 16 knots
 Gusting to 23 knots
6 miles
  • Broken at 800' AGL
  • Overcast at 1,600' AGL
  • Light Rain
  • Mist
Temperatures Readings Precipitation
Current 4°C / 39°F
Dewpoint 3°C / 37°F
Humidity 93%
Altimeter 30.14" Hg
Pressure 1020.9 hPa
Elevation 130
Current Rain 0.11
METAR KRDU 151151Z 05016G23KT 6SM -RA BR BKN008 OVC016 04/03 A3014 RMK AO2 PK WND 04026/1057 SLP209 60028 70028 P0011 T00390028 10039 20022 57043
Observed Flight Rules
Nov-15 @ 11:51 UTC
(an hour ago)
IFR
Wind Visibility
50° at 16 knots
 Gusting to 23 knots
6 miles
Clouds
  • Broken at 800' AGL
  • Overcast at 1,600' AGL
Conditions
  • Light Rain
  • Mist
Temperature Dewpoint
4°C / 39°F 3°C / 37°F
Humidity Altimeter Pressure
93% 30.14" Hg 1020.9 hPa
Current Rain
0.11